EmailTwitter


Surface observations / United Kingdom / EGTE (03839)

Regions: Quebec | Canada | USA | Europe | France | UK | Elsewhere
Station
Display
Info & Location for EGTE (03839) | Help decoding METAR

Weather Conditions observed on 2019/04/23 at 14:20 UTC at EXETER AIRPORT, UK (EGTE)

Temperature: 16.0 Celsius.

Dewpoint: 10.0 Celsius.

Relative Humidity: 68%

Winds: Southwest at 7 km/h or 4 knots.

Mean Sea level Pressure: 99.50 kilopascals.

Coded METAR:

EGTE 231420Z 21004KT CAVOK 16/10 Q0995=